Kyokusho Maru — JL6605 — position and weather

sailwx.info

Track history (hours):
 
Tides and Currents Weather Stations Pressure Air Temp Water Temp Dewpoint Dewpoint Depression Visibility Wind Speed Wind Dir Waves Ship Positions

Kyokusho Maru

Last reported at 2016-Dec-08 10:33 UTC. Time now 2016-Dec-10 21:45 UTC.
Position N 34°37' E 135°01'.

Length 77 m; draft 5.5 m.

Type: Tanker. MMSI: 431501667.

Date/timePositionNaut miles runAvg speedWind from/ knotsBaromVisibWave heightAir tempDewpointWater temp
2016-Dec-08 10:33N 34°37' E 135°01'9 8.9
2016-Dec-08 09:33N 34°28' E 135°04'1311.2
2016-Dec-08 08:24N 34°16' E 134°60'11 2.1
2016-Dec-08 03:05N 34°07' E 135°08'3 5.0
2016-Dec-08 02:34N 34°09' E 135°09'0 0.1
2016-Dec-08 01:28N 34°09' E 135°09'0 0.1
2016-Dec-08 00:31N 34°09' E 135°09'0 0.1
2016-Dec-07 23:28N 34°09' E 135°09'0 0.0
2016-Dec-07 22:31N 34°09' E 135°09'0 0.0
2016-Dec-07 21:31N 34°09' E 135°09'0 0.1
2016-Dec-07 20:31N 34°09' E 135°09'0 0.0
2016-Dec-07 19:25N 34°09' E 135°09'0 0.1
2016-Dec-07 18:31N 34°09' E 135°09'0 0.1
2016-Dec-07 17:31N 34°09' E 135°09'0 0.1
2016-Dec-07 16:28N 34°09' E 135°09'0 0.1
2016-Dec-07 15:31N 34°09' E 135°09'0 0.0
2016-Dec-07 14:31N 34°09' E 135°09'0 0.1
2016-Dec-07 13:31N 34°09' E 135°09'8 8.3
2016-Dec-07 12:33N 34°08' E 134°59'  
2016-Dec-02 04:32N 35°21' E 139°42'1212.4
2016-Dec-02 03:33N 35°30' E 139°52'6 2.4
2016-Dec-02 01:09N 35°31' E 139°59'0 0.0
2016-Dec-02 00:12N 35°31' E 139°59'0 0.0
2016-Dec-01 23:30N 35°31' E 139°59'0 0.0
2016-Dec-01 22:15N 35°31' E 139°59'0 0.0
2016-Dec-01 21:24N 35°31' E 139°59'0 0.0
2016-Dec-01 20:21N 35°31' E 139°59'0 0.0
2016-Dec-01 19:33N 35°31' E 139°59'0 0.0
2016-Dec-01 18:31N 35°31' E 139°59'0 0.0
2016-Dec-01 17:31N 35°31' E 139°59'0 0.0
2016-Dec-01 16:29N 35°31' E 139°59'0 0.0
2016-Dec-01 15:30N 35°31' E 139°59'0 0.0
2016-Dec-01 14:33N 35°31' E 139°59'0 0.0
2016-Dec-01 13:32N 35°31' E 139°59'0 0.1
2016-Dec-01 12:33N 35°31' E 139°59'0 0.0
2016-Dec-01 10:29N 35°32' E 139°59'0 0.0
2016-Dec-01 09:32N 35°32' E 139°59'0 0.1
2016-Dec-01 05:33N 35°31' E 139°60'0 0.2
2016-Dec-01 02:22N 35°31' E 139°59'910.5
2016-Dec-01 01:33N 35°30' E 139°49'2 1.9
2016-Dec-01 00:32N 35°31' E 139°46'0 0.0
2016-Nov-30 23:32N 35°31' E 139°46'0 0.0
2016-Nov-30 22:32N 35°31' E 139°46'3 3.1
2016-Nov-30 21:33N 35°30' E 139°50'0 0.1
2016-Nov-30 20:32N 35°30' E 139°50'0 0.0
2016-Nov-30 19:31N 35°30' E 139°50'0 0.0
2016-Nov-30 18:32N 35°30' E 139°50'0 0.0
2016-Nov-30 17:32N 35°30' E 139°50'0 0.0
2016-Nov-30 16:31N 35°30' E 139°50'0 0.0
2016-Nov-30 15:32N 35°30' E 139°50'0 0.0
2016-Nov-30 14:32N 35°30' E 139°50'0 0.0
2016-Nov-30 13:31N 35°30' E 139°50'0 0.0
2016-Nov-30 12:31N 35°30' E 139°50'0 0.0
2016-Nov-30 11:31N 35°30' E 139°50'0 0.0
2016-Nov-30 10:32N 35°30' E 139°50'0 0.0
2016-Nov-30 09:31N 35°30' E 139°50'0 0.1
2016-Nov-30 08:31N 35°30' E 139°50'0 0.0
2016-Nov-30 07:31N 35°30' E 139°50'0 0.1
2016-Nov-30 06:31N 35°30' E 139°50'0 0.0
2016-Nov-30 05:31N 35°30' E 139°50'0 0.1
2016-Nov-30 04:31N 35°30' E 139°50'6 1.1
2016-Nov-29 23:33N 35°30' E 139°57'9 9.6
2016-Nov-29 22:33N 35°25' E 139°48'10 9.9
2016-Nov-29 21:33N 35°15' E 139°47'246 7.0
2016-Nov-28 10:34N 34°08' E 134°59'  
Track history (hours):
 
Tides and Currents Weather Stations Pressure Air Temp Water Temp Dewpoint Dewpoint Depression Visibility Wind Speed Wind Dir Waves Ship Positions

Kyokusho Maru

Last reported at 2016-Dec-08 10:33 UTC. Time now 2016-Dec-10 21:45 UTC.
Position N 34°37' E 135°01'.

Length 77 m; draft 5.5 m.

Type: Tanker. MMSI: 431501667.

Date/timePositionNaut miles runAvg speedWind from/ knotsBaromVisibWave heightAir tempDewpointWater temp
2016-Dec-08 10:33N 34°37' E 135°01'9 8.9
2016-Dec-08 09:33N 34°28' E 135°04'1311.2
2016-Dec-08 08:24N 34°16' E 134°60'11 2.1
2016-Dec-08 03:05N 34°07' E 135°08'3 5.0
2016-Dec-08 02:34N 34°09' E 135°09'0 0.1
2016-Dec-08 01:28N 34°09' E 135°09'0 0.1
2016-Dec-08 00:31N 34°09' E 135°09'0 0.1
2016-Dec-07 23:28N 34°09' E 135°09'0 0.0
2016-Dec-07 22:31N 34°09' E 135°09'0 0.0
2016-Dec-07 21:31N 34°09' E 135°09'0 0.1
2016-Dec-07 20:31N 34°09' E 135°09'0 0.0
2016-Dec-07 19:25N 34°09' E 135°09'0 0.1
2016-Dec-07 18:31N 34°09' E 135°09'0 0.1
2016-Dec-07 17:31N 34°09' E 135°09'0 0.1
2016-Dec-07 16:28N 34°09' E 135°09'0 0.1
2016-Dec-07 15:31N 34°09' E 135°09'0 0.0
2016-Dec-07 14:31N 34°09' E 135°09'0 0.1
2016-Dec-07 13:31N 34°09' E 135°09'8 8.3
2016-Dec-07 12:33N 34°08' E 134°59'  
2016-Dec-02 04:32N 35°21' E 139°42'1212.4
2016-Dec-02 03:33N 35°30' E 139°52'6 2.4
2016-Dec-02 01:09N 35°31' E 139°59'0 0.0
2016-Dec-02 00:12N 35°31' E 139°59'0 0.0
2016-Dec-01 23:30N 35°31' E 139°59'0 0.0
2016-Dec-01 22:15N 35°31' E 139°59'0 0.0
2016-Dec-01 21:24N 35°31' E 139°59'0 0.0
2016-Dec-01 20:21N 35°31' E 139°59'0 0.0
2016-Dec-01 19:33N 35°31' E 139°59'0 0.0
2016-Dec-01 18:31N 35°31' E 139°59'0 0.0
2016-Dec-01 17:31N 35°31' E 139°59'0 0.0
2016-Dec-01 16:29N 35°31' E 139°59'0 0.0
2016-Dec-01 15:30N 35°31' E 139°59'0 0.0
2016-Dec-01 14:33N 35°31' E 139°59'0 0.0
2016-Dec-01 13:32N 35°31' E 139°59'0 0.1
2016-Dec-01 12:33N 35°31' E 139°59'0 0.0
2016-Dec-01 10:29N 35°32' E 139°59'0 0.0
2016-Dec-01 09:32N 35°32' E 139°59'0 0.1
2016-Dec-01 05:33N 35°31' E 139°60'0 0.2
2016-Dec-01 02:22N 35°31' E 139°59'910.5
2016-Dec-01 01:33N 35°30' E 139°49'2 1.9
2016-Dec-01 00:32N 35°31' E 139°46'0 0.0
2016-Nov-30 23:32N 35°31' E 139°46'0 0.0
2016-Nov-30 22:32N 35°31' E 139°46'3 3.1
2016-Nov-30 21:33N 35°30' E 139°50'0 0.1
2016-Nov-30 20:32N 35°30' E 139°50'0 0.0
2016-Nov-30 19:31N 35°30' E 139°50'0 0.0
2016-Nov-30 18:32N 35°30' E 139°50'0 0.0
2016-Nov-30 17:32N 35°30' E 139°50'0 0.0
2016-Nov-30 16:31N 35°30' E 139°50'0 0.0
2016-Nov-30 15:32N 35°30' E 139°50'0 0.0
2016-Nov-30 14:32N 35°30' E 139°50'0 0.0
2016-Nov-30 13:31N 35°30' E 139°50'0 0.0
2016-Nov-30 12:31N 35°30' E 139°50'0 0.0
2016-Nov-30 11:31N 35°30' E 139°50'0 0.0
2016-Nov-30 10:32N 35°30' E 139°50'0 0.0
2016-Nov-30 09:31N 35°30' E 139°50'0 0.1
2016-Nov-30 08:31N 35°30' E 139°50'0 0.0
2016-Nov-30 07:31N 35°30' E 139°50'0 0.1
2016-Nov-30 06:31N 35°30' E 139°50'0 0.0
2016-Nov-30 05:31N 35°30' E 139°50'0 0.1
2016-Nov-30 04:31N 35°30' E 139°50'6 1.1
2016-Nov-29 23:33N 35°30' E 139°57'9 9.6
2016-Nov-29 22:33N 35°25' E 139°48'10 9.9
2016-Nov-29 21:33N 35°15' E 139°47'246 7.0
2016-Nov-28 10:34N 34°08' E 134°59'  

Dump ship's entire track history